To NAV CANADA Home Page Login to a new session Search on AWWS site Feedback and Comments Disclaimer Vers la page française équivalente Tips FAQ What's new on the site To the Forecasts and Observations / NOTAM section To "File a Flight Plan" website Publications and other links Update of the User's profile FIC Telephone Numbers My Weather Data Folder Route Weather Data Regional Weather Data Local Weather Data To the Forecasts and Observations / NOTAM section
Request Generated 04/26/2015 at 11:29:45 UTC . Weather information available at that time is displayed.

METAR/TAF

SUDBURY/ON    

METAR CYSB 261100Z 01011KT 20SM FEW015 SCT032 OVC069 02/M02 A2989 RMK
SC2SC2AC4 SLP134=
METAR CYSB 261000Z 01008KT 20SM FEW038 OVC072 02/M02 A2988 RMK SC2AC6
SLP128=
METAR CYSB 260900Z 36011G16KT 15SM BKN075 02/M02 A2986 RMK AC6
SLP124=

TAF CYSB 260738Z 2608/2620 01005KT P6SM BKN050
FM261000 35010KT P6SM SCT015 OVC025 TEMPO 2610/2614 4SM -RASN BR
OVC015
FM261400 35010G20KT P6SM OVC030 TEMPO 2614/2620 5SM -SHRA BR
OVC020
RMK NXT FCST BY 261400Z=
Your time UTC time
Weather data provided by Environment Canada and NAV CANADA